Nord Glory — 3FIA5 — position and weather

sailwx.info

Track history (hours):
 
Tides and Currents Weather Stations Pressure Air Temp Water Temp Dewpoint Dewpoint Depression Visibility Wind Speed Wind Dir Waves Ship Positions

Nord Glory

Last reported at 2015-Jul-20 11:10 UTC. Time now 2015-Aug-05 08:28 UTC.
Position N 30°42' E 032°21'.
Warning: this ship's position is 15 days out of date.

Length 190 m; draft 12.2 m.

Type: Cargo ship. MMSI: 354206000.

Date/timePositionNaut miles runAvg speedWind from/ knotsBaromVisibWave heightAir tempDewpointWater temp
2015-Jul-20 11:10N 30°42' E 032°21'15 9.5
2015-Jul-20 09:33N 30°57' E 032°19'10 9.8
2015-Jul-20 08:33N 31°07' E 032°18'8 8.1
2015-Jul-20 07:33N 31°15' E 032°19'6 6.2
2015-Jul-20 06:33N 31°21' E 032°22'3 3.3
2015-Jul-20 05:32N 31°23' E 032°19'1 0.5
2015-Jul-20 04:26N 31°23' E 032°19'0 0.0
2015-Jul-20 03:32N 31°23' E 032°19'0 0.0
2015-Jul-20 02:29N 31°23' E 032°19'0 0.0
2015-Jul-20 01:32N 31°23' E 032°19'0 0.0
2015-Jul-20 00:32N 31°23' E 032°19'0 0.0
2015-Jul-19 23:32N 31°23' E 032°19'0 0.0
2015-Jul-19 22:32N 31°23' E 032°19'0 0.0
2015-Jul-19 21:32N 31°23' E 032°19'0 0.0
2015-Jul-19 20:29N 31°23' E 032°19'0 0.0
2015-Jul-19 19:29N 31°23' E 032°19'0 0.0
2015-Jul-19 18:32N 31°23' E 032°19'0 0.0
2015-Jul-19 17:29N 31°23' E 032°19'0 0.0
2015-Jul-19 16:32N 31°23' E 032°19'0 0.0
2015-Jul-19 15:23N 31°23' E 032°19'0 0.0
2015-Jul-19 14:29N 31°23' E 032°19'0 0.0
2015-Jul-19 13:32N 31°23' E 032°19'0 0.0
2015-Jul-19 12:29N 31°23' E 032°19'0 0.0
2015-Jul-19 11:32N 31°23' E 032°19'0 0.0
2015-Jul-19 10:29N 31°23' E 032°19'0 0.0
2015-Jul-19 09:32N 31°23' E 032°19'0 0.1
2015-Jul-19 08:32N 31°23' E 032°19'8510.7
2015-Jul-19 00:33N 32°26' E 031°12'1111.4
2015-Jul-18 23:33N 32°35' E 031°03'1111.4
2015-Jul-18 22:34N 32°43' E 030°54'1211.5
2015-Jul-18 21:29N 32°52' E 030°44'1111.8
2015-Jul-18 20:33N 33°01' E 030°35'1212.0
2015-Jul-18 19:33N 33°10' E 030°26'1211.9
2015-Jul-18 18:34N 33°18' E 030°16'1412.0
2015-Jul-18 17:26N 33°28' E 030°05'1112.5
2015-Jul-18 16:33N 33°36' E 029°56'1212.5
2015-Jul-18 15:33N 33°46' E 029°46'1212.5
2015-Jul-18 14:33N 33°55' E 029°36'1212.6
2015-Jul-18 13:33N 34°04' E 029°26'1312.5
2015-Jul-18 12:33N 34°14' E 029°16'8311.9
2015-Jul-18 05:33N 35°15' E 028°08'4812.0
2015-Jul-18 01:33N 35°51' E 027°28'1312.6
2015-Jul-18 00:33N 36°00' E 027°18'2512.2
2015-Jul-17 22:29N 36°19' E 026°57'1112.0
2015-Jul-17 21:33N 36°27' E 026°47'1612.3
2015-Jul-17 20:13N 36°39' E 026°33'812.3
2015-Jul-17 19:33N 36°45' E 026°27'1312.8
2015-Jul-17 18:33N 36°55' E 026°16'1312.8
2015-Jul-17 17:33N 37°03' E 026°04'1312.5
2015-Jul-17 16:32N 37°12' E 025°52'1212.3
2015-Jul-17 15:33N 37°23' E 025°47'1212.2
2015-Jul-17 14:33N 37°35' E 025°43'1212.2
2015-Jul-17 13:33N 37°47' E 025°39'23010.0
2015-Jul-16 14:31N 40°52' E 028°35'1111.7
2015-Jul-16 13:33N 40°54' E 028°50'38 8.9
2015-Jul-16 09:13N 41°25' E 029°20'1 1.1
2015-Jul-16 08:32N 41°25' E 029°19'17 1.4
2015-Jul-15 20:32N 41°32' E 029°39'32812.0
2015-Jul-14 17:13N 44°01' E 036°17'812.0
2015-Jul-14 16:31N 44°05' E 036°28'1111.7
2015-Jul-14 15:33N 44°10' E 036°42'1211.9
2015-Jul-14 14:32N 44°16' E 036°57'1212.3
2015-Jul-14 13:33N 44°21' E 037°12'1212.2
2015-Jul-14 12:33N 44°27' E 037°27'1212.1
2015-Jul-14 11:33N 44°32' E 037°42'9 8.5
2015-Jul-14 10:31N 44°35' E 037°53'0 0.1
2015-Jul-14 09:31N 44°35' E 037°53'0 0.0
2015-Jul-14 08:31N 44°35' E 037°53'0 0.0
2015-Jul-14 07:31N 44°35' E 037°53'0 0.0
2015-Jul-14 06:31N 44°36' E 037°53'0 0.0
2015-Jul-14 05:31N 44°36' E 037°53'0 0.0
2015-Jul-14 04:31N 44°35' E 037°53'0 0.0
2015-Jul-14 03:28N 44°35' E 037°53'0 0.0
2015-Jul-14 02:31N 44°36' E 037°53'0 0.0
2015-Jul-14 01:31N 44°36' E 037°53'0 0.0
2015-Jul-14 00:31N 44°36' E 037°53'0 0.0
2015-Jul-13 23:31N 44°35' E 037°53'0 0.0
2015-Jul-13 22:31N 44°35' E 037°53'0 0.0
2015-Jul-13 21:31N 44°35' E 037°53'0 0.0
2015-Jul-13 20:31N 44°35' E 037°53'0 0.0
2015-Jul-13 19:31N 44°35' E 037°53'0 0.0
2015-Jul-13 18:31N 44°36' E 037°53'0 0.0
2015-Jul-13 17:31N 44°36' E 037°53'0 0.0
2015-Jul-13 16:31N 44°36' E 037°53'0 0.0
2015-Jul-13 15:31N 44°36' E 037°53'0 0.0
2015-Jul-13 14:31N 44°36' E 037°53'0 0.0
2015-Jul-13 13:31N 44°36' E 037°53'0 0.0
2015-Jul-13 12:31N 44°36' E 037°53'0 0.0
2015-Jul-13 11:31N 44°36' E 037°53'0 0.0
2015-Jul-13 10:31N 44°36' E 037°53'0 0.0
2015-Jul-13 09:31N 44°36' E 037°53'0 0.0
2015-Jul-13 08:31N 44°36' E 037°53'0 0.0
2015-Jul-13 07:31N 44°36' E 037°53'0 0.0
2015-Jul-13 06:31N 44°36' E 037°53'0 0.0
2015-Jul-13 05:31N 44°36' E 037°53'0 0.0
2015-Jul-13 04:31N 44°36' E 037°53'0 0.0
2015-Jul-13 03:31N 44°36' E 037°53'0 0.0
2015-Jul-13 02:31N 44°36' E 037°53'1 1.1
2015-Jul-13 01:33N 44°35' E 037°52'7 6.6
2015-Jul-13 00:33N 44°30' E 037°46'1211.7
2015-Jul-12 23:33N 44°25' E 037°31'9911.0
2015-Jul-12 14:33N 44°14' E 035°13'1212.0
2015-Jul-12 13:33N 44°15' E 034°56'1211.8
2015-Jul-12 12:33N 44°15' E 034°40'1211.8
2015-Jul-12 11:33N 44°15' E 034°24'1211.7
2015-Jul-12 10:33N 44°15' E 034°07'5810.8
2015-Jul-12 05:13N 44°41' E 032°55'138 5.1
2015-Jul-11 02:22N 46°29' E 030°51'0 0.0
2015-Jul-11 00:31N 46°29' E 030°51'0 0.0
2015-Jul-10 23:28N 46°29' E 030°51'0 0.0
2015-Jul-10 22:28N 46°29' E 030°51'  
Track history (hours):
 
Tides and Currents Weather Stations Pressure Air Temp Water Temp Dewpoint Dewpoint Depression Visibility Wind Speed Wind Dir Waves Ship Positions

Nord Glory

Last reported at 2015-Jul-20 11:10 UTC. Time now 2015-Aug-05 08:28 UTC.
Position N 30°42' E 032°21'.
Warning: this ship's position is 15 days out of date.

Length 190 m; draft 12.2 m.

Type: Cargo ship. MMSI: 354206000.

Date/timePositionNaut miles runAvg speedWind from/ knotsBaromVisibWave heightAir tempDewpointWater temp
2015-Jul-20 11:10N 30°42' E 032°21'15 9.5
2015-Jul-20 09:33N 30°57' E 032°19'10 9.8
2015-Jul-20 08:33N 31°07' E 032°18'8 8.1
2015-Jul-20 07:33N 31°15' E 032°19'6 6.2
2015-Jul-20 06:33N 31°21' E 032°22'3 3.3
2015-Jul-20 05:32N 31°23' E 032°19'1 0.5
2015-Jul-20 04:26N 31°23' E 032°19'0 0.0
2015-Jul-20 03:32N 31°23' E 032°19'0 0.0
2015-Jul-20 02:29N 31°23' E 032°19'0 0.0
2015-Jul-20 01:32N 31°23' E 032°19'0 0.0
2015-Jul-20 00:32N 31°23' E 032°19'0 0.0
2015-Jul-19 23:32N 31°23' E 032°19'0 0.0
2015-Jul-19 22:32N 31°23' E 032°19'0 0.0
2015-Jul-19 21:32N 31°23' E 032°19'0 0.0
2015-Jul-19 20:29N 31°23' E 032°19'0 0.0
2015-Jul-19 19:29N 31°23' E 032°19'0 0.0
2015-Jul-19 18:32N 31°23' E 032°19'0 0.0
2015-Jul-19 17:29N 31°23' E 032°19'0 0.0
2015-Jul-19 16:32N 31°23' E 032°19'0 0.0
2015-Jul-19 15:23N 31°23' E 032°19'0 0.0
2015-Jul-19 14:29N 31°23' E 032°19'0 0.0
2015-Jul-19 13:32N 31°23' E 032°19'0 0.0
2015-Jul-19 12:29N 31°23' E 032°19'0 0.0
2015-Jul-19 11:32N 31°23' E 032°19'0 0.0
2015-Jul-19 10:29N 31°23' E 032°19'0 0.0
2015-Jul-19 09:32N 31°23' E 032°19'0 0.1
2015-Jul-19 08:32N 31°23' E 032°19'8510.7
2015-Jul-19 00:33N 32°26' E 031°12'1111.4
2015-Jul-18 23:33N 32°35' E 031°03'1111.4
2015-Jul-18 22:34N 32°43' E 030°54'1211.5
2015-Jul-18 21:29N 32°52' E 030°44'1111.8
2015-Jul-18 20:33N 33°01' E 030°35'1212.0
2015-Jul-18 19:33N 33°10' E 030°26'1211.9
2015-Jul-18 18:34N 33°18' E 030°16'1412.0
2015-Jul-18 17:26N 33°28' E 030°05'1112.5
2015-Jul-18 16:33N 33°36' E 029°56'1212.5
2015-Jul-18 15:33N 33°46' E 029°46'1212.5
2015-Jul-18 14:33N 33°55' E 029°36'1212.6
2015-Jul-18 13:33N 34°04' E 029°26'1312.5
2015-Jul-18 12:33N 34°14' E 029°16'8311.9
2015-Jul-18 05:33N 35°15' E 028°08'4812.0
2015-Jul-18 01:33N 35°51' E 027°28'1312.6
2015-Jul-18 00:33N 36°00' E 027°18'2512.2
2015-Jul-17 22:29N 36°19' E 026°57'1112.0
2015-Jul-17 21:33N 36°27' E 026°47'1612.3
2015-Jul-17 20:13N 36°39' E 026°33'812.3
2015-Jul-17 19:33N 36°45' E 026°27'1312.8
2015-Jul-17 18:33N 36°55' E 026°16'1312.8
2015-Jul-17 17:33N 37°03' E 026°04'1312.5
2015-Jul-17 16:32N 37°12' E 025°52'1212.3
2015-Jul-17 15:33N 37°23' E 025°47'1212.2
2015-Jul-17 14:33N 37°35' E 025°43'1212.2
2015-Jul-17 13:33N 37°47' E 025°39'23010.0
2015-Jul-16 14:31N 40°52' E 028°35'1111.7
2015-Jul-16 13:33N 40°54' E 028°50'38 8.9
2015-Jul-16 09:13N 41°25' E 029°20'1 1.1
2015-Jul-16 08:32N 41°25' E 029°19'17 1.4
2015-Jul-15 20:32N 41°32' E 029°39'32812.0
2015-Jul-14 17:13N 44°01' E 036°17'812.0
2015-Jul-14 16:31N 44°05' E 036°28'1111.7
2015-Jul-14 15:33N 44°10' E 036°42'1211.9
2015-Jul-14 14:32N 44°16' E 036°57'1212.3
2015-Jul-14 13:33N 44°21' E 037°12'1212.2
2015-Jul-14 12:33N 44°27' E 037°27'1212.1
2015-Jul-14 11:33N 44°32' E 037°42'9 8.5
2015-Jul-14 10:31N 44°35' E 037°53'0 0.1
2015-Jul-14 09:31N 44°35' E 037°53'0 0.0
2015-Jul-14 08:31N 44°35' E 037°53'0 0.0
2015-Jul-14 07:31N 44°35' E 037°53'0 0.0
2015-Jul-14 06:31N 44°36' E 037°53'0 0.0
2015-Jul-14 05:31N 44°36' E 037°53'0 0.0
2015-Jul-14 04:31N 44°35' E 037°53'0 0.0
2015-Jul-14 03:28N 44°35' E 037°53'0 0.0
2015-Jul-14 02:31N 44°36' E 037°53'0 0.0
2015-Jul-14 01:31N 44°36' E 037°53'0 0.0
2015-Jul-14 00:31N 44°36' E 037°53'0 0.0
2015-Jul-13 23:31N 44°35' E 037°53'0 0.0
2015-Jul-13 22:31N 44°35' E 037°53'0 0.0
2015-Jul-13 21:31N 44°35' E 037°53'0 0.0
2015-Jul-13 20:31N 44°35' E 037°53'0 0.0
2015-Jul-13 19:31N 44°35' E 037°53'0 0.0
2015-Jul-13 18:31N 44°36' E 037°53'0 0.0
2015-Jul-13 17:31N 44°36' E 037°53'0 0.0
2015-Jul-13 16:31N 44°36' E 037°53'0 0.0
2015-Jul-13 15:31N 44°36' E 037°53'0 0.0
2015-Jul-13 14:31N 44°36' E 037°53'0 0.0
2015-Jul-13 13:31N 44°36' E 037°53'0 0.0
2015-Jul-13 12:31N 44°36' E 037°53'0 0.0
2015-Jul-13 11:31N 44°36' E 037°53'0 0.0
2015-Jul-13 10:31N 44°36' E 037°53'0 0.0
2015-Jul-13 09:31N 44°36' E 037°53'0 0.0
2015-Jul-13 08:31N 44°36' E 037°53'0 0.0
2015-Jul-13 07:31N 44°36' E 037°53'0 0.0
2015-Jul-13 06:31N 44°36' E 037°53'0 0.0
2015-Jul-13 05:31N 44°36' E 037°53'0 0.0
2015-Jul-13 04:31N 44°36' E 037°53'0 0.0
2015-Jul-13 03:31N 44°36' E 037°53'0 0.0
2015-Jul-13 02:31N 44°36' E 037°53'1 1.1
2015-Jul-13 01:33N 44°35' E 037°52'7 6.6
2015-Jul-13 00:33N 44°30' E 037°46'1211.7
2015-Jul-12 23:33N 44°25' E 037°31'9911.0
2015-Jul-12 14:33N 44°14' E 035°13'1212.0
2015-Jul-12 13:33N 44°15' E 034°56'1211.8
2015-Jul-12 12:33N 44°15' E 034°40'1211.8
2015-Jul-12 11:33N 44°15' E 034°24'1211.7
2015-Jul-12 10:33N 44°15' E 034°07'5810.8
2015-Jul-12 05:13N 44°41' E 032°55'138 5.1
2015-Jul-11 02:22N 46°29' E 030°51'0 0.0
2015-Jul-11 00:31N 46°29' E 030°51'0 0.0
2015-Jul-10 23:28N 46°29' E 030°51'0 0.0
2015-Jul-10 22:28N 46°29' E 030°51'  

Dump ship's entire track history